Time;durP1;ratioP1;P1;durP2;ratioP2;P2;SDS_P1;SDS_P2;PMS_P1;PMS_P2;Temp;Humidity;BMP_temperature;BMP_pressure;BME280_temperature;BME280_humidity;BME280_pressure;Samples;Min_cycle;Max_cycle;Signal;HPM_P1;HPM_P2
2022/04/04 00:00:37;;;;;;;21.00;14.53;;;;;;;6.93;nan;-24010.53;4974740;28;20166;-71
2022/04/04 00:03:02;;;;;;;20.93;13.87;;;;;;;6.91;nan;-24009.81;4974867;28;20192;-71
2022/04/04 00:06:00;;;;;;;21.63;14.63;;;;;;;6.07;nan;-23986.41;4974353;28;20180;-71
2022/04/04 00:08:44;;;;;;;22.50;15.50;;;;;;;6.76;nan;-24005.72;4974760;28;20168;-71
2022/04/04 00:11:12;;;;;;;19.77;13.93;;;;;;;6.50;nan;-23998.47;4972172;28;20173;-71
2022/04/04 00:13:38;;;;;;;21.27;14.70;;;;;;;6.33;nan;-23993.50;4954559;28;20182;-71
2022/04/04 00:16:03;;;;;;;25.67;15.20;;;;;;;6.69;nan;-24003.72;4933542;29;20202;-71
2022/04/04 00:18:29;;;;;;;22.53;14.37;;;;;;;6.31;nan;-23993.09;4935742;29;20190;-71
2022/04/04 00:20:54;;;;;;;23.47;14.10;;;;;;;6.18;nan;-23989.53;4935688;29;20211;-71
2022/04/04 00:23:20;;;;;;;21.10;15.10;;;;;;;6.30;nan;-23992.78;4935725;29;20547;-71
2022/04/04 00:25:47;;;;;;;21.50;14.37;;;;;;;6.01;nan;-23984.56;4935452;29;20331;-71
2022/04/04 00:28:14;;;;;;;21.57;14.60;;;;;;;6.31;nan;-23992.94;4935051;29;20658;-71
2022/04/04 00:30:41;;;;;;;22.07;14.93;;;;;;;6.35;nan;-23994.06;4935804;29;20180;-71
2022/04/04 00:33:07;;;;;;;21.47;14.23;;;;;;;6.41;nan;-23995.91;4935458;29;20677;-71
2022/04/04 00:35:36;;;;;;;19.93;13.53;;;;;;;6.49;nan;-23998.19;4935336;29;20175;-71
2022/04/04 00:38:02;;;;;;;19.73;14.07;;;;;;;5.57;nan;-23972.19;4935532;29;20673;-71
2022/04/04 00:40:28;;;;;;;21.60;14.87;;;;;;;6.22;nan;-23990.66;4952012;29;20190;-71
2022/04/04 00:42:54;;;;;;;18.93;13.37;;;;;;;6.16;nan;-23988.97;4953401;28;20185;-71
2022/04/04 00:45:20;;;;;;;18.13;12.60;;;;;;;6.25;nan;-23991.22;4953788;28;20314;-71
2022/04/04 00:47:45;;;;;;;21.07;12.97;;;;;;;6.59;nan;-24001.03;4954645;28;20222;-71
2022/04/04 00:50:11;;;;;;;18.37;13.30;;;;;;;6.25;nan;-23991.22;4954796;28;20221;-71
2022/04/04 00:52:38;;;;;;;19.93;12.90;;;;;;;6.18;nan;-23989.38;4954947;29;20182;-73
2022/04/04 00:55:07;;;;;;;17.83;12.23;;;;;;;6.61;nan;-24001.59;4954878;29;20179;-73
2022/04/04 00:57:34;;;;;;;19.27;12.77;;;;;;;6.48;nan;-23997.91;4954739;29;20178;-73
2022/04/04 01:00:00;;;;;;;20.20;13.17;;;;;;;5.99;nan;-23984.00;4953720;29;20563;-72
2022/04/04 01:02:25;;;;;;;18.33;12.60;;;;;;;6.58;nan;-24000.59;4953869;29;20186;-72
2022/04/04 01:04:51;;;;;;;20.73;13.20;;;;;;;6.05;nan;-23985.69;4954656;29;20213;-72
2022/04/04 01:07:16;;;;;;;23.50;13.80;;;;;;;6.55;nan;-23999.91;4954479;29;20556;-72
2022/04/04 01:09:42;;;;;;;19.67;13.37;;;;;;;6.05;nan;-23985.84;4954280;29;20268;-72
2022/04/04 01:12:11;;;;;;;22.47;13.80;;;;;;;6.41;nan;-23995.91;4954344;28;20237;-72
2022/04/04 01:14:46;;;;;;;21.77;14.47;;;;;;;6.45;nan;-23997.06;4954487;28;20186;-72
2022/04/04 01:17:12;;;;;;;23.90;13.77;;;;;;;6.43;nan;-23996.34;4954553;28;20173;-73
2022/04/04 01:19:38;;;;;;;20.87;13.80;;;;;;;6.44;nan;-23996.63;4954276;28;20185;-72
2022/04/04 01:22:07;;;;;;;19.83;13.37;;;;;;;6.19;nan;-23989.81;4954279;28;20187;-72
2022/04/04 01:24:33;;;;;;;18.40;12.60;;;;;;;5.99;nan;-23984.00;4954188;28;20630;-72
2022/04/04 01:26:58;;;;;;;20.07;13.83;;;;;;;6.33;nan;-23993.50;4952939;29;20209;-73
2022/04/04 01:29:24;;;;;;;19.07;13.50;;;;;;;6.28;nan;-23992.09;4954200;29;20177;-73
2022/04/04 01:31:50;;;;;;;19.60;13.90;;;;;;;6.25;nan;-23991.38;4954321;28;20174;-73
2022/04/04 01:34:20;;;;;;;21.43;13.67;;;;;;;6.32;nan;-23993.22;4954043;28;20174;-72
2022/04/04 01:36:46;;;;;;;21.97;13.43;;;;;;;5.93;nan;-23982.44;4954067;28;20610;-73
2022/04/04 01:39:11;;;;;;;19.80;13.50;;;;;;;6.03;nan;-23985.28;4953545;28;20198;-72
2022/04/04 01:41:37;;;;;;;20.63;14.13;;;;;;;6.32;nan;-23993.22;4954403;29;20168;-73
2022/04/04 01:44:04;;;;;;;20.57;13.27;;;;;;;6.04;nan;-23985.56;4954034;29;20630;-72
2022/04/04 01:47:11;;;;;;;18.27;12.83;;;;;;;6.42;nan;-23996.22;4952636;29;20198;-72
2022/04/04 01:49:44;;;;;;;17.10;12.00;;;;;;;6.40;nan;-23995.50;4958171;28;20232;-72
2022/04/04 01:52:09;;;;;;;20.73;14.03;;;;;;;6.36;nan;-23994.34;4973501;28;20712;-72
2022/04/04 01:54:34;;;;;;;17.17;12.30;;;;;;;6.32;nan;-23993.22;4973245;28;20173;-72
2022/04/04 01:57:00;;;;;;;24.27;13.20;;;;;;;5.89;nan;-23981.28;4973592;28;20177;-72
2022/04/04 01:59:25;;;;;;;20.50;13.20;;;;;;;5.99;nan;-23984.13;4972983;28;20185;-72
2022/04/04 02:01:51;;;;;;;18.53;12.33;;;;;;;6.09;nan;-23986.97;4972673;28;20181;-72
2022/04/04 02:04:16;;;;;;;20.57;13.47;;;;;;;5.96;nan;-23983.28;4967262;28;20645;-72
2022/04/04 02:06:43;;;;;;;18.23;12.40;;;;;;;5.83;nan;-23979.59;4950135;28;20217;-72
2022/04/04 02:09:08;;;;;;;19.27;12.63;;;;;;;6.07;nan;-23986.25;4952051;28;20190;-72
2022/04/04 02:11:34;;;;;;;17.50;11.53;;;;;;;5.70;nan;-23975.88;4952602;28;20193;-72
2022/04/04 02:14:02;;;;;;;21.57;12.70;;;;;;;5.87;nan;-23980.72;4952016;28;20274;-72
2022/04/04 02:16:28;;;;;;;17.47;11.83;;;;;;;5.51;nan;-23970.47;4953052;28;20179;-72
2022/04/04 02:18:54;;;;;;;14.97;10.83;;;;;;;5.96;nan;-23983.28;4951960;28;20213;-73
2022/04/04 02:21:19;;;;;;;16.33;11.53;;;;;;;5.83;nan;-23979.44;4952219;28;20186;-70
2022/04/04 02:23:45;;;;;;;17.10;10.93;;;;;;;5.79;nan;-23978.44;4951829;28;20642;-72
2022/04/04 02:26:11;;;;;;;15.20;10.60;;;;;;;5.55;nan;-23971.63;4952275;28;20329;-73
2022/04/04 02:28:37;;;;;;;15.73;10.73;;;;;;;5.85;nan;-23980.16;4952364;28;20193;-72
2022/04/04 02:31:03;;;;;;;15.63;10.90;;;;;;;5.74;nan;-23977.16;4955607;28;20886;-72
2022/04/04 02:33:30;;;;;;;13.70;10.23;;;;;;;5.63;nan;-23973.91;4952454;28;20705;-72
2022/04/04 02:35:55;;;;;;;15.30;11.00;;;;;;;5.73;nan;-23976.88;4951804;28;20302;-72
2022/04/04 02:38:25;;;;;;;17.03;11.10;;;;;;;5.41;nan;-23967.78;4952213;28;20261;-72
2022/04/04 02:40:52;;;;;;;18.50;11.00;;;;;;;5.59;nan;-23972.75;4951932;28;20193;-72
2022/04/04 02:43:18;;;;;;;16.37;11.73;;;;;;;5.49;nan;-23969.91;4951841;28;20182;-72
2022/04/04 02:45:44;;;;;;;17.87;11.90;;;;;;;5.45;nan;-23968.78;4951362;28;20192;-72
2022/04/04 02:48:09;;;;;;;15.47;10.93;;;;;;;5.79;nan;-23978.59;4951817;28;20182;-72
2022/04/04 02:50:35;;;;;;;16.03;10.33;;;;;;;5.22;nan;-23962.53;4955768;28;20320;-73
2022/04/04 02:53:01;;;;;;;16.90;10.53;;;;;;;5.57;nan;-23972.34;4955360;28;20531;-72
2022/04/04 02:58:11;;;;;;;13.63;10.30;;;;;;;5.41;nan;-23967.66;4952443;29;20213;-72
2022/04/04 03:00:36;;;;;;;14.40;9.77;;;;;;;5.74;nan;-23977.03;4953315;29;20658;-73
2022/04/04 03:03:02;;;;;;;13.73;9.17;;;;;;;5.33;nan;-23965.50;4957532;28;20273;-71
2022/04/04 03:05:28;;;;;;;13.50;9.40;;;;;;;5.48;nan;-23969.78;4959060;28;20217;-70
2022/04/04 03:07:54;;;;;;;12.23;9.33;;;;;;;5.51;nan;-23970.47;4958424;28;20640;-70
2022/04/04 03:10:20;;;;;;;13.03;9.20;;;;;;;5.76;nan;-23977.59;4957540;28;20181;-70
2022/04/04 03:12:49;;;;;;;13.63;10.03;;;;;;;5.62;nan;-23973.75;4961589;28;20623;-70
2022/04/04 03:15:22;;;;;;;14.90;10.37;;;;;;;6.08;nan;-23986.69;4956316;29;20273;-70
2022/04/04 03:17:54;;;;;;;15.10;9.90;;;;;;;5.70;nan;-23975.88;4938900;29;20665;-70
2022/04/04 03:20:21;;;;;;;18.87;10.07;;;;;;;5.68;nan;-23975.47;4957153;28;20189;-70
2022/04/04 03:22:51;;;;;;;16.33;10.13;;;;;;;5.70;nan;-23975.88;4962890;28;20185;-71
2022/04/04 03:25:17;;;;;;;15.47;9.87;;;;;;;5.86;nan;-23980.44;4958643;28;20182;-70
2022/04/04 03:27:44;;;;;;;13.63;9.70;;;;;;;5.94;nan;-23982.72;4960941;28;20633;-70
2022/04/04 03:30:15;;;;;;;15.33;10.00;;;;;;;5.73;nan;-23976.88;4958590;28;20186;-70
2022/04/04 03:32:41;;;;;;;12.37;9.20;;;;;;;5.63;nan;-23973.91;4958435;28;20212;-73
2022/04/04 03:35:07;;;;;;;13.10;9.10;;;;;;;5.95;nan;-23983.00;4960724;28;20649;-71
2022/04/04 03:37:34;;;;;;;12.03;9.17;;;;;;;6.13;nan;-23987.97;4959284;28;20217;-72
2022/04/04 03:40:01;;;;;;;14.77;9.63;;;;;;;5.83;nan;-23979.44;4974033;28;20185;-71
2022/04/04 03:42:26;;;;;;;13.17;9.50;;;;;;;6.08;nan;-23986.69;4959187;28;20237;-71
2022/04/04 03:44:53;;;;;;;11.80;8.63;;;;;;;5.76;nan;-23977.75;4956689;28;20194;-72
2022/04/04 03:47:18;;;;;;;12.67;8.73;;;;;;;6.25;nan;-23991.22;4958170;28;20690;-71
2022/04/04 03:49:44;;;;;;;12.70;8.77;;;;;;;5.70;nan;-23975.88;4955374;28;20225;-71
2022/04/04 03:52:11;;;;;;;11.80;8.73;;;;;;;6.23;nan;-23990.81;4948049;28;20206;-71
2022/04/04 03:54:37;;;;;;;12.93;9.43;;;;;;;6.24;nan;-23990.94;4948715;29;20277;-72
2022/04/04 03:57:03;;;;;;;13.67;8.87;;;;;;;5.80;nan;-23978.72;4949040;29;20328;-71
2022/04/04 03:59:29;;;;;;;13.40;9.03;;;;;;;6.07;nan;-23986.41;4947292;28;20204;-71
2022/04/04 04:01:54;;;;;;;15.83;9.13;;;;;;;6.14;nan;-23988.25;4948402;29;20248;-71
2022/04/04 04:04:20;;;;;;;13.63;8.00;;;;;;;6.11;nan;-23987.53;4948875;28;20658;-71
2022/04/04 04:06:45;;;;;;;11.53;8.27;;;;;;;5.83;nan;-23979.59;4948354;28;20205;-73
2022/04/04 04:09:12;;;;;;;10.43;8.17;;;;;;;6.37;nan;-23994.66;4948127;29;20182;-72
2022/04/04 04:11:37;;;;;;;11.43;8.37;;;;;;;6.41;nan;-23995.78;4948689;28;20281;-72
2022/04/04 04:14:03;;;;;;;12.03;9.03;;;;;;;6.17;nan;-23989.09;4947566;29;20264;-71
2022/04/04 04:16:28;;;;;;;12.43;8.63;;;;;;;6.54;nan;-23999.63;4948372;28;20186;-71
2022/04/04 04:18:54;;;;;;;12.97;7.93;;;;;;;6.55;nan;-23999.75;4953406;29;20195;-71
2022/04/04 04:21:20;;;;;;;10.07;8.03;;;;;;;6.53;nan;-23999.31;4955213;29;20185;-72
2022/04/04 04:23:46;;;;;;;10.30;8.33;;;;;;;6.59;nan;-24000.88;4954257;28;20178;-72
2022/04/04 04:26:13;;;;;;;13.33;8.20;;;;;;;6.30;nan;-23992.78;4954864;29;20248;-72
2022/04/04 04:28:40;;;;;;;11.40;8.47;;;;;;;6.82;nan;-24007.41;4955429;29;20193;-72
2022/04/04 04:31:06;;;;;;;12.87;8.73;;;;;;;6.51;nan;-23998.75;4955214;29;20188;-72
2022/04/04 04:33:32;;;;;;;12.57;8.53;;;;;;;6.83;nan;-24007.69;4954858;28;20166;-73
2022/04/04 04:35:58;;;;;;;13.20;8.20;;;;;;;7.02;nan;-24013.09;4954908;28;20174;-72
2022/04/04 04:38:24;;;;;;;12.60;8.43;;;;;;;6.70;nan;-24003.88;4954616;28;20265;-72
2022/04/04 04:40:49;;;;;;;11.80;8.47;;;;;;;7.05;nan;-24013.81;4955206;28;20249;-72
2022/04/04 04:43:15;;;;;;;13.60;8.80;;;;;;;7.10;nan;-24015.34;4955036;28;20180;-72
2022/04/04 04:45:41;;;;;;;12.07;7.80;;;;;;;7.02;nan;-24013.09;4954772;29;20264;-72
2022/04/04 04:48:07;;;;;;;14.47;8.67;;;;;;;7.09;nan;-24015.06;4955113;28;20206;-73
2022/04/04 04:50:33;;;;;;;11.77;8.53;;;;;;;6.85;nan;-24008.25;4956652;28;20217;-73
2022/04/04 04:52:58;;;;;;;11.63;7.90;;;;;;;7.24;nan;-24019.03;4964640;28;20223;-74
2022/04/04 04:55:25;;;;;;;12.50;8.23;;;;;;;6.85;nan;-24008.25;4961252;28;20182;-73
2022/04/04 04:57:52;;;;;;;10.27;7.67;;;;;;;6.97;nan;-24011.53;4937160;29;20178;-76
2022/04/04 05:00:21;;;;;;;9.53;7.17;;;;;;;7.20;nan;-24018.06;4972373;28;20228;-72
2022/04/04 05:03:24;;;;;;;9.53;7.03;;;;;;;7.08;nan;-24014.78;4973471;28;20180;-74
2022/04/04 05:05:32;;;;;;;10.07;7.63;;;;;;;6.60;nan;-24001.31;4973537;28;20231;-76
2022/04/04 05:07:58;;;;;;;10.13;7.50;;;;;;;7.08;nan;-24014.78;4973627;28;20209;-72
2022/04/04 05:10:24;;;;;;;12.20;7.93;;;;;;;6.83;nan;-24007.69;4962271;28;20205;-71
2022/04/04 05:12:49;;;;;;;11.37;7.77;;;;;;;6.79;nan;-24006.44;4953806;28;20174;-72
2022/04/04 05:15:16;;;;;;;12.70;7.70;;;;;;;7.30;nan;-24020.75;4952207;29;20184;-71
2022/04/04 05:17:42;;;;;;;13.73;7.80;;;;;;;7.26;nan;-24019.75;4953830;28;20161;-71
2022/04/04 05:20:07;;;;;;;10.67;7.63;;;;;;;6.93;nan;-24010.41;4954125;29;20197;-72
2022/04/04 05:22:33;;;;;;;10.67;7.63;;;;;;;6.99;nan;-24012.09;4953603;28;20169;-71
2022/04/04 05:24:58;;;;;;;9.83;7.50;;;;;;;7.21;nan;-24018.34;4953682;29;20170;-72
2022/04/04 05:27:24;;;;;;;10.87;7.30;;;;;;;7.35;nan;-24022.16;4953781;29;20202;-72
2022/04/04 05:29:49;;;;;;;18.23;8.40;;;;;;;7.64;nan;-24030.25;4953249;28;20657;-72
2022/04/04 05:32:15;;;;;;;11.27;7.77;;;;;;;7.80;nan;-24034.91;4953747;29;20228;-72
2022/04/04 05:34:40;;;;;;;11.67;7.97;;;;;;;8.10;nan;-24043.28;4953675;28;20909;-71
2022/04/04 05:37:06;;;;;;;9.23;7.23;;;;;;;8.05;nan;-24041.72;4953407;28;20174;-71
2022/04/04 05:39:31;;;;;;;14.00;7.83;;;;;;;7.87;nan;-24036.75;4953484;28;20167;-72
2022/04/04 05:41:57;;;;;;;11.57;7.30;;;;;;;7.97;nan;-24039.72;4953657;28;20206;-71
2022/04/04 05:44:22;;;;;;;10.73;7.27;;;;;;;8.11;nan;-24043.56;4953419;28;20185;-70
2022/04/04 05:46:48;;;;;;;10.07;7.53;;;;;;;7.96;nan;-24039.44;4953276;29;20233;-71
2022/04/04 05:49:13;;;;;;;12.27;8.23;;;;;;;8.28;nan;-24048.22;4952766;29;20182;-71
2022/04/04 05:51:39;;;;;;;13.17;8.37;;;;;;;7.74;nan;-24033.22;4953305;29;20193;-71
2022/04/04 05:54:05;;;;;;;11.63;7.93;;;;;;;8.54;nan;-24055.59;4953274;29;20209;-73
2022/04/04 05:56:32;;;;;;;14.17;7.70;;;;;;;8.30;nan;-24048.94;4952214;29;20209;-72
2022/04/04 05:58:57;;;;;;;10.67;8.10;;;;;;;8.42;nan;-24052.34;4952228;29;20178;-72
2022/04/04 06:01:23;;;;;;;13.13;9.83;;;;;;;8.36;nan;-24050.66;4953962;29;20193;-72
2022/04/04 06:03:50;;;;;;;13.23;8.47;;;;;;;8.04;nan;-24041.56;4952357;29;20185;-72
2022/04/04 06:06:15;;;;;;;13.20;8.57;;;;;;;8.58;nan;-24056.72;4953577;29;20218;-72
2022/04/04 06:08:41;;;;;;;18.43;8.27;;;;;;;9.13;nan;-24072.00;4943590;29;20617;-71
2022/04/04 06:11:06;;;;;;;10.87;7.87;;;;;;;9.13;nan;-24072.00;4952615;29;20170;-69
2022/04/04 06:13:32;;;;;;;10.33;8.00;;;;;;;8.89;nan;-24065.34;4952972;29;20186;-70
2022/04/04 06:15:57;;;;;;;11.17;7.87;;;;;;;9.26;nan;-24075.81;4953058;29;20288;-72
2022/04/04 06:18:22;;;;;;;12.97;8.20;;;;;;;9.04;nan;-24069.59;4951911;29;20185;-71
2022/04/04 06:20:48;;;;;;;11.87;7.87;;;;;;;9.11;nan;-24071.44;4953464;28;20240;-71
2022/04/04 06:23:14;;;;;;;16.43;8.10;;;;;;;9.23;nan;-24074.84;4953445;28;20252;-71
2022/04/04 06:25:41;;;;;;;10.80;7.37;;;;;;;9.28;nan;-24076.25;4953284;28;20232;-71
2022/04/04 06:28:07;;;;;;;10.57;8.43;;;;;;;9.17;nan;-24073.28;4952159;29;20613;-70
2022/04/04 06:30:34;;;;;;;10.03;7.97;;;;;;;9.65;nan;-24086.56;4952060;29;20337;-70
2022/04/04 06:32:59;;;;;;;9.37;7.17;;;;;;;9.48;nan;-24081.75;4953412;28;20178;-71
2022/04/04 06:35:25;;;;;;;9.33;7.27;;;;;;;9.46;nan;-24081.34;4953428;28;20663;-71
2022/04/04 06:37:52;;;;;;;11.03;7.33;;;;;;;9.79;nan;-24090.53;4953188;28;20189;-71
2022/04/04 06:40:17;;;;;;;13.60;9.27;;;;;;;9.98;nan;-24095.88;4953391;28;20210;-70
2022/04/04 06:42:44;;;;;;;11.60;8.10;;;;;;;10.10;nan;-24099.28;4955521;28;20217;-71
2022/04/04 06:45:11;;;;;;;12.40;7.87;;;;;;;9.86;nan;-24092.50;4956560;28;20190;-71
2022/04/04 06:47:37;;;;;;;9.40;7.50;;;;;;;9.82;nan;-24091.38;4956554;28;20588;-71
2022/04/04 06:50:04;;;;;;;9.30;6.83;;;;;;;9.32;nan;-24077.53;4956845;28;20222;-70
2022/04/04 06:52:29;;;;;;;9.03;6.57;;;;;;;9.57;nan;-24084.44;4948972;29;20193;-71
2022/04/04 06:54:56;;;;;;;11.57;7.50;;;;;;;9.71;nan;-24088.25;4955168;29;20186;-71
2022/04/04 06:57:24;;;;;;;11.63;7.53;;;;;;;9.37;nan;-24078.66;4956808;28;20598;-71
2022/04/04 06:59:50;;;;;;;9.67;7.17;;;;;;;9.76;nan;-24089.81;4956206;28;20178;-71
2022/04/04 07:02:16;;;;;;;13.93;7.37;;;;;;;9.74;nan;-24089.09;4956513;28;20261;-71
2022/04/04 07:04:41;;;;;;;10.80;7.00;;;;;;;9.64;nan;-24086.28;4956404;28;20192;-70
2022/04/04 07:07:10;;;;;;;14.07;8.07;;;;;;;9.71;nan;-24088.25;4956355;28;20577;-71
2022/04/04 07:09:36;;;;;;;12.10;8.00;;;;;;;9.96;nan;-24095.31;4955870;28;20181;-70
2022/04/04 07:12:02;;;;;;;10.37;7.87;;;;;;;10.22;nan;-24102.38;4956459;28;20555;-70
2022/04/04 07:14:28;;;;;;;12.07;8.20;;;;;;;10.15;nan;-24100.69;4954824;29;20594;-71
2022/04/04 07:16:54;;;;;;;14.67;9.23;;;;;;;10.22;nan;-24102.53;4955747;28;20198;-71
2022/04/04 07:19:22;;;;;;;10.80;8.53;;;;;;;10.32;nan;-24105.34;4943092;29;20635;-71
2022/04/04 07:21:49;;;;;;;11.27;8.00;;;;;;;10.69;nan;-24115.50;4954218;29;20189;-71
2022/04/04 07:24:14;;;;;;;14.10;8.20;;;;;;;10.57;nan;-24112.25;4955983;28;20186;-71
2022/04/04 07:26:40;;;;;;;12.47;8.93;;;;;;;10.56;nan;-24111.97;4956086;29;20212;-71
2022/04/04 07:29:05;;;;;;;10.97;7.87;;;;;;;11.00;nan;-24124.41;4955776;29;20189;-70
2022/04/04 07:31:31;;;;;;;9.90;7.70;;;;;;;10.81;nan;-24119.03;4956619;28;20209;-70
2022/04/04 07:33:56;;;;;;;12.80;8.67;;;;;;;10.41;nan;-24107.75;4956197;29;20174;-71
2022/04/04 07:36:22;;;;;;;13.57;7.72;;;;;;;10.96;nan;-24123.25;4955227;29;20276;-71
2022/04/04 07:38:47;;;;;;;10.60;7.63;;;;;;;10.85;nan;-24120.03;4955974;29;20264;-72
2022/04/04 07:41:12;;;;;;;14.30;8.30;;;;;;;10.67;nan;-24115.09;4955604;29;20238;-71
2022/04/04 07:43:38;;;;;;;21.77;9.77;;;;;;;11.16;nan;-24128.75;4955749;28;20228;-70
2022/04/04 07:46:03;;;;;;;15.87;9.03;;;;;;;11.30;nan;-24132.56;4954568;29;20685;-71
2022/04/04 07:48:29;;;;;;;16.13;8.13;;;;;;;11.40;nan;-24135.53;4953121;29;20178;-71
2022/04/04 07:50:54;;;;;;;8.47;6.80;;;;;;;11.51;nan;-24138.63;4953680;28;20217;-71
2022/04/04 07:53:20;;;;;;;8.85;7.00;;;;;;;11.03;nan;-24125.25;4954851;29;20186;-71
2022/04/04 07:55:45;;;;;;;10.55;7.68;;;;;;;11.44;nan;-24136.66;4954797;29;20281;-71
2022/04/04 07:58:11;;;;;;;7.95;6.95;;;;;;;11.62;nan;-24141.59;4954866;29;20217;-71
2022/04/04 08:00:36;;;;;;;9.10;7.32;;;;;;;11.55;nan;-24139.47;4954806;28;20186;-71
2022/04/04 08:03:04;;;;;;;9.52;7.43;;;;;;;11.69;nan;-24143.41;4955651;28;20182;-71
2022/04/04 08:05:30;;;;;;;8.88;6.95;;;;;;;11.11;nan;-24127.34;4954736;28;20177;-71
2022/04/04 08:07:55;;;;;;;8.57;7.18;;;;;;;11.40;nan;-24135.53;4955248;29;20692;-71
2022/04/04 08:10:21;;;;;;;9.75;7.35;;;;;;;11.73;nan;-24144.56;4955832;28;20182;-71
2022/04/04 08:12:47;;;;;;;11.73;7.05;;;;;;;11.90;nan;-24149.34;4955099;29;20642;-71
2022/04/04 08:15:13;;;;;;;8.02;6.70;;;;;;;11.73;nan;-24144.56;4955235;28;20188;-71
2022/04/04 08:17:39;;;;;;;8.88;6.80;;;;;;;11.84;nan;-24147.66;4954730;29;20629;-71
2022/04/04 08:20:05;;;;;;;11.13;7.28;;;;;;;12.04;nan;-24153.28;4954967;28;20186;-71
2022/04/04 08:22:44;;;;;;;7.68;6.40;;;;;;;11.99;nan;-24151.88;4954192;29;20720;-71
2022/04/04 08:25:11;;;;;;;8.48;6.47;;;;;;;12.14;nan;-24155.97;4955093;28;20186;-71
2022/04/04 08:27:36;;;;;;;9.65;7.05;;;;;;;12.40;nan;-24163.41;4954524;29;20214;-71
2022/04/04 08:30:08;;;;;;;11.13;6.95;;;;;;;12.33;nan;-24161.44;4955000;28;20642;-71
2022/04/04 08:32:37;;;;;;;9.55;7.00;;;;;;;12.58;nan;-24168.19;4939437;29;20228;-70
2022/04/04 08:35:07;;;;;;;8.40;6.18;;;;;;;12.40;nan;-24163.28;4951897;29;20653;-70
2022/04/04 08:37:34;;;;;;;8.45;6.30;;;;;;;12.74;nan;-24172.69;4954843;29;20166;-70
2022/04/04 08:40:01;;;;;;;9.00;6.60;;;;;;;12.93;nan;-24177.91;4954338;29;20304;-70
2022/04/04 08:42:27;;;;;;;8.40;6.57;;;;;;;12.70;nan;-24171.56;4955154;28;20170;-70
2022/04/04 08:44:58;;;;;;;8.10;5.70;;;;;;;13.02;nan;-24180.56;4954435;28;20289;-70
2022/04/04 08:47:25;;;;;;;8.52;6.43;;;;;;;13.54;nan;-24194.91;4954599;28;20198;-71
2022/04/04 08:49:52;;;;;;;9.73;6.28;;;;;;;13.77;nan;-24201.22;4959948;28;20225;-70
2022/04/04 08:52:17;;;;;;;8.52;6.28;;;;;;;13.75;nan;-24200.81;4973817;28;20547;-71
2022/04/04 08:54:43;;;;;;;8.90;6.70;;;;;;;14.22;nan;-24213.72;4973608;28;20321;-71
2022/04/04 08:57:08;;;;;;;10.13;6.20;;;;;;;14.40;nan;-24218.75;4963959;28;20182;-71
2022/04/04 08:59:34;;;;;;;11.52;6.20;;;;;;;14.79;nan;-24229.69;4954522;29;20557;-71
2022/04/04 09:01:59;;;;;;;8.82;6.65;;;;;;;14.22;nan;-24213.72;4954264;29;20260;-71
2022/04/04 09:04:24;;;;;;;8.98;6.38;;;;;;;14.38;nan;-24218.22;4953314;28;20174;-71
2022/04/04 09:06:52;;;;;;;10.10;6.07;;;;;;;14.26;nan;-24214.84;4954145;28;20194;-70
2022/04/04 09:09:37;;;;;;;8.43;6.43;;;;;;;14.36;nan;-24217.78;4954178;28;20248;-71
2022/04/04 09:12:06;;;;;;;6.13;5.32;;;;;;;14.32;nan;-24216.50;4955048;28;20166;-71
2022/04/04 09:14:36;;;;;;;6.65;5.93;;;;;;;14.49;nan;-24221.44;4953861;28;20217;-71
2022/04/04 09:17:02;;;;;;;8.00;5.50;;;;;;;13.83;nan;-24203.03;4953899;28;20653;-71
2022/04/04 09:19:29;;;;;;;6.35;5.50;;;;;;;13.55;nan;-24195.31;4954222;28;20214;-71
2022/04/04 09:21:55;;;;;;;8.23;5.30;;;;;;;14.40;nan;-24218.75;4953832;28;20238;-71
2022/04/04 09:24:20;;;;;;;10.32;5.78;;;;;;;14.26;nan;-24214.84;4954017;28;20177;-71
2022/04/04 09:26:45;;;;;;;6.93;5.30;;;;;;;13.24;nan;-24186.75;4953585;28;20190;-71
2022/04/04 09:29:20;;;;;;;6.93;4.93;;;;;;;13.68;nan;-24198.84;4952523;28;20174;-71
2022/04/04 09:31:59;;;;;;;6.32;4.82;;;;;;;14.70;nan;-24227.03;4953956;28;20169;-71
2022/04/04 09:34:25;;;;;;;5.88;5.13;;;;;;;14.68;nan;-24226.47;4954191;28;20176;-71
2022/04/04 09:36:51;;;;;;;6.88;5.30;;;;;;;15.13;nan;-24238.94;4953987;28;20170;-72
2022/04/04 09:39:17;;;;;;;8.90;5.50;;;;;;;14.88;nan;-24232.22;4954033;28;20206;-71
2022/04/04 09:41:43;;;;;;;6.25;5.35;;;;;;;15.56;nan;-24251.00;4952486;29;20297;-71
2022/04/04 09:44:11;;;;;;;6.03;5.03;;;;;;;15.88;nan;-24259.81;4953540;28;20178;-71
2022/04/04 09:46:41;;;;;;;5.78;5.18;;;;;;;16.04;nan;-24264.28;4953285;28;20570;-71
2022/04/04 09:49:20;;;;;;;7.50;5.07;;;;;;;14.44;nan;-24220.03;4953983;28;20260;-71
2022/04/04 09:51:53;;;;;;;6.50;5.40;;;;;;;14.88;nan;-24232.09;4953151;28;20577;-72
2022/04/04 09:54:23;;;;;;;8.88;5.90;;;;;;;15.31;nan;-24244.00;4952970;28;20315;-71
2022/04/04 09:56:56;;;;;;;7.32;5.72;;;;;;;15.49;nan;-24249.03;4953277;28;20205;-67
2022/04/04 09:59:21;;;;;;;6.25;5.28;;;;;;;15.55;nan;-24250.72;4953303;28;20729;-67
2022/04/04 10:01:47;;;;;;;6.72;5.57;;;;;;;15.44;nan;-24247.63;4953311;28;20189;-69
2022/04/04 10:04:13;;;;;;;5.65;5.07;;;;;;;15.34;nan;-24244.84;4952797;29;20174;-68
2022/04/04 10:06:41;;;;;;;6.82;5.00;;;;;;;16.26;nan;-24270.44;4953668;28;20208;-68
2022/04/04 10:09:07;;;;;;;6.28;5.03;;;;;;;16.19;nan;-24268.34;4953626;28;20638;-68
2022/04/04 10:11:35;;;;;;;6.90;5.35;;;;;;;16.42;nan;-24274.63;4953323;28;20193;-68
2022/04/04 10:14:01;;;;;;;6.55;5.28;;;;;;;16.89;nan;-24287.78;4954109;28;20162;-68
2022/04/04 10:16:26;;;;;;;4.97;4.47;;;;;;;16.57;nan;-24278.97;4957137;28;20188;-68
2022/04/04 10:18:57;;;;;;;5.53;4.82;;;;;;;16.29;nan;-24271.13;4956601;28;20193;-67
2022/04/04 10:21:23;;;;;;;5.90;4.75;;;;;;;16.65;nan;-24281.22;4956985;28;20165;-68
2022/04/04 10:23:52;;;;;;;7.40;5.00;;;;;;;16.66;nan;-24281.50;4955412;29;20185;-68
2022/04/04 10:26:20;;;;;;;6.78;5.25;;;;;;;16.99;nan;-24290.44;4956655;28;20213;-68
2022/04/04 10:28:47;;;;;;;5.28;4.60;;;;;;;16.62;nan;-24280.38;4957413;28;20166;-68
2022/04/04 10:31:14;;;;;;;6.28;5.28;;;;;;;17.21;nan;-24296.56;4957065;28;20205;-69
2022/04/04 10:33:39;;;;;;;6.72;5.10;;;;;;;16.94;nan;-24289.16;4956984;28;20174;-68
2022/04/04 10:36:06;;;;;;;8.00;5.07;;;;;;;16.72;nan;-24283.16;4956808;28;20186;-68
2022/04/04 10:38:34;;;;;;;5.80;5.15;;;;;;;16.97;nan;-24290.00;4956603;28;20178;-67
2022/04/04 10:41:07;;;;;;;7.60;5.32;;;;;;;16.31;nan;-24271.69;4956916;29;20185;-68
2022/04/04 10:43:34;;;;;;;8.40;5.68;;;;;;;16.42;nan;-24274.63;4956783;28;20162;-68
2022/04/04 10:46:05;;;;;;;10.10;6.00;;;;;;;16.43;nan;-24275.06;4956442;28;20206;-68
2022/04/04 10:48:36;;;;;;;6.15;5.50;;;;;;;17.03;nan;-24291.53;4957022;28;20630;-68
2022/04/04 10:51:18;;;;;;;6.32;5.72;;;;;;;16.94;nan;-24289.16;4956425;28;20705;-68
2022/04/04 10:53:47;;;;;;;6.50;5.72;;;;;;;17.27;nan;-24298.09;4956603;29;20237;-68
2022/04/04 10:56:37;;;;;;;6.15;5.32;;;;;;;16.91;nan;-24288.34;4954111;29;20237;-67
2022/04/04 10:59:14;;;;;;;6.13;5.28;;;;;;;17.26;nan;-24297.97;4956074;29;20222;-69
2022/04/04 11:01:41;;;;;;;5.97;5.03;;;;;;;17.56;nan;-24306.34;4956005;29;20179;-70
2022/04/04 11:04:23;;;;;;;5.63;4.88;;;;;;;17.26;nan;-24297.81;4956669;29;20174;-69
2022/04/04 11:09:50;;;;;;;7.88;5.20;;;;;;;17.71;nan;-24310.38;4956113;29;20664;-69
2022/04/04 11:12:18;;;;;;;7.63;5.32;;;;;;;17.53;nan;-24305.34;4956570;29;20541;-68
2022/04/04 11:14:46;;;;;;;6.78;5.28;;;;;;;15.96;nan;-24262.06;4956033;29;20189;-69
2022/04/04 11:17:16;;;;;;;7.88;5.45;;;;;;;15.59;nan;-24251.84;4955981;29;20182;-69
2022/04/04 11:20:04;;;;;;;6.65;5.25;;;;;;;15.34;nan;-24244.97;4937665;29;20653;-70
2022/04/04 11:22:34;;;;;;;7.72;5.50;;;;;;;15.65;nan;-24253.50;4938250;29;20653;-70
2022/04/04 11:25:05;;;;;;;6.45;5.10;;;;;;;15.86;nan;-24259.38;4956051;29;20178;-70
2022/04/04 11:27:35;;;;;;;6.43;5.10;;;;;;;16.58;nan;-24279.13;4955141;28;20293;-69
2022/04/04 11:30:15;;;;;;;6.70;5.60;;;;;;;16.71;nan;-24282.88;4955875;29;20185;-70
2022/04/04 11:32:42;;;;;;;7.43;5.53;;;;;;;17.28;nan;-24298.53;4955640;29;20255;-69
2022/04/04 11:35:08;;;;;;;8.38;5.63;;;;;;;16.44;nan;-24275.34;4955661;29;20178;-70
2022/04/04 11:37:49;;;;;;;8.95;6.35;;;;;;;16.08;nan;-24265.28;4955858;29;20186;-70
2022/04/04 11:40:18;;;;;;;8.10;5.70;;;;;;;16.23;nan;-24269.47;4938302;29;20177;-69
2022/04/04 11:42:51;;;;;;;6.95;5.60;;;;;;;16.26;nan;-24270.31;4955452;29;20607;-69
2022/04/04 11:45:20;;;;;;;9.27;6.45;;;;;;;16.34;nan;-24272.69;4955339;29;20253;-69